Time;durP1;ratioP1;P1;durP2;ratioP2;P2;SDS_P1;SDS_P2;PMS_P1;PMS_P2;Temp;Humidity;BMP_temperature;BMP_pressure;BME280_temperature;BME280_humidity;BME280_pressure;Samples;Min_cycle;Max_cycle;Signal;HPM_P1;HPM_P2
2023/03/23 00:01:02;;;;;;;16.50;7.10;;;;;;;9.18;64.53;98719.08;108701;1254;95804;-72
2023/03/23 00:03:31;;;;;;;17.40;7.00;;;;;;;9.15;64.65;98720.36;108658;1253;95648;-70
2023/03/23 00:06:10;;;;;;;15.60;6.70;;;;;;;9.14;64.61;98725.02;108844;1253;100960;-70
2023/03/23 00:08:44;;;;;;;15.80;6.90;;;;;;;9.11;64.61;98723.80;108595;1253;107342;-70
2023/03/23 00:11:16;;;;;;;16.70;7.10;;;;;;;9.09;64.69;98723.07;108787;1254;95681;-70
2023/03/23 00:13:43;;;;;;;17.00;6.80;;;;;;;9.07;64.65;98716.84;108773;1253;95659;-71
2023/03/23 00:16:17;;;;;;;17.20;7.30;;;;;;;9.05;64.61;98719.81;108748;1252;95752;-70
2023/03/23 00:18:45;;;;;;;16.70;6.80;;;;;;;9.04;64.65;98715.13;108893;1254;100545;-71
2023/03/23 00:21:11;;;;;;;15.20;6.50;;;;;;;9.01;64.64;98718.48;108657;1253;106841;-71
2023/03/23 00:23:39;;;;;;;15.90;6.90;;;;;;;9.00;64.66;98717.90;108848;1253;95711;-70
2023/03/23 00:26:09;;;;;;;14.10;6.20;;;;;;;9.01;64.66;98716.23;108765;1254;95714;-71
2023/03/23 00:28:35;;;;;;;16.70;7.10;;;;;;;9.00;64.65;98714.70;108784;1252;109832;-70
2023/03/23 00:31:05;;;;;;;19.60;7.20;;;;;;;8.97;64.55;98714.73;108484;1253;96081;-70
2023/03/23 00:33:37;;;;;;;14.10;6.40;;;;;;;8.94;64.74;98709.62;108554;1253;107559;-70
2023/03/23 00:36:13;;;;;;;17.10;7.50;;;;;;;8.93;64.64;98708.79;108848;1253;95644;-70
2023/03/23 00:38:44;;;;;;;16.50;7.10;;;;;;;8.92;64.72;98703.05;108649;1253;95825;-71
2023/03/23 00:41:11;;;;;;;17.60;6.80;;;;;;;8.92;64.72;98702.35;108583;1252;110996;-70
2023/03/23 00:43:38;;;;;;;14.30;6.70;;;;;;;8.92;64.73;98700.08;108877;1252;96051;-70
2023/03/23 00:46:09;;;;;;;16.10;7.20;;;;;;;8.90;64.84;98703.58;108896;1252;107691;-70
2023/03/23 00:48:40;;;;;;;16.30;7.20;;;;;;;8.88;64.86;98701.45;108834;1253;95540;-70
2023/03/23 00:51:10;;;;;;;15.10;6.60;;;;;;;8.85;64.81;98700.89;108890;1253;95702;-70
2023/03/23 00:53:37;;;;;;;16.70;6.90;;;;;;;8.84;64.69;98693.91;108874;1253;110384;-71
2023/03/23 00:56:04;;;;;;;16.40;7.20;;;;;;;8.84;64.80;98694.27;108699;1252;100535;-70
2023/03/23 00:58:30;;;;;;;18.30;6.60;;;;;;;8.83;64.85;98689.02;108864;1254;96796;-70
2023/03/23 01:00:56;;;;;;;16.50;7.30;;;;;;;8.80;64.84;98686.19;108823;1253;95633;-71
2023/03/23 01:03:25;;;;;;;16.00;7.10;;;;;;;8.79;64.84;98680.30;109002;1252;95645;-71
2023/03/23 01:05:53;;;;;;;15.10;6.80;;;;;;;8.77;64.86;98682.91;108682;1253;100920;-74
2023/03/23 01:08:19;;;;;;;16.60;7.10;;;;;;;8.73;64.70;98680.17;108885;1253;108680;-70
2023/03/23 01:10:46;;;;;;;16.00;6.60;;;;;;;8.72;64.89;98682.73;108650;1252;96171;-71
2023/03/23 01:13:12;;;;;;;16.60;7.00;;;;;;;8.72;64.83;98682.36;108885;1254;95579;-70
2023/03/23 01:15:39;;;;;;;17.50;7.40;;;;;;;8.72;64.91;98674.79;108702;1253;95625;-70
2023/03/23 01:18:06;;;;;;;14.90;6.90;;;;;;;8.70;64.87;98677.72;108767;1254;95704;-70
2023/03/23 01:20:35;;;;;;;15.80;6.50;;;;;;;8.68;64.93;98676.81;108660;1253;95711;-70
2023/03/23 01:23:02;;;;;;;15.40;7.00;;;;;;;8.68;64.94;98676.13;108921;1253;95902;-70
2023/03/23 01:25:36;;;;;;;13.80;6.00;;;;;;;8.66;65.00;98672.70;108748;1253;95689;-70
2023/03/23 01:28:02;;;;;;;16.20;6.50;;;;;;;8.69;65.12;98670.79;108775;1252;100922;-70
2023/03/23 01:30:29;;;;;;;17.70;7.50;;;;;;;8.69;64.91;98670.21;108895;1253;95625;-70
2023/03/23 01:32:56;;;;;;;14.00;6.70;;;;;;;8.68;64.93;98668.16;108894;1253;95693;-70
2023/03/23 01:35:22;;;;;;;16.10;7.30;;;;;;;8.67;65.04;98665.23;108881;1253;95775;-71
2023/03/23 01:37:48;;;;;;;15.80;6.40;;;;;;;8.68;65.01;98664.46;109002;1253;95658;-70
2023/03/23 01:40:15;;;;;;;18.50;7.80;;;;;;;8.70;65.18;98661.50;108888;1252;107338;-70
2023/03/23 01:42:41;;;;;;;16.90;7.20;;;;;;;8.75;65.05;98666.59;108587;1252;96604;-70
2023/03/23 01:45:20;;;;;;;16.30;6.50;;;;;;;8.77;65.11;98663.80;108865;1256;96024;-70
2023/03/23 01:47:56;;;;;;;16.70;6.60;;;;;;;8.78;65.21;98669.57;108678;1253;111222;-71
2023/03/23 01:50:24;;;;;;;15.90;6.80;;;;;;;8.79;65.19;98665.05;108613;1254;99881;-71
2023/03/23 01:52:56;;;;;;;14.80;6.50;;;;;;;8.83;65.08;98667.31;108871;1252;107229;-71
2023/03/23 01:55:27;;;;;;;15.80;7.00;;;;;;;8.86;65.13;98667.79;108872;1256;95588;-71
2023/03/23 01:57:55;;;;;;;16.60;7.30;;;;;;;8.87;65.17;98669.27;108771;1252;95590;-70
2023/03/23 02:00:22;;;;;;;16.00;7.40;;;;;;;8.88;65.22;98669.02;108889;1254;110852;-70
2023/03/23 02:02:50;;;;;;;17.00;7.10;;;;;;;8.89;65.24;98668.09;108693;1253;95868;-71
2023/03/23 02:05:28;;;;;;;13.90;5.70;;;;;;;8.88;65.16;98667.79;108508;1253;95743;-71
2023/03/23 02:07:59;;;;;;;14.90;6.70;;;;;;;8.90;65.16;98663.75;108817;1253;95599;-70
2023/03/23 02:10:26;;;;;;;15.00;7.00;;;;;;;8.92;65.20;98661.66;108917;1253;95598;-70
2023/03/23 02:12:52;;;;;;;16.50;6.50;;;;;;;8.93;65.28;98661.58;108863;1252;95582;-71
2023/03/23 02:15:18;;;;;;;17.60;7.60;;;;;;;8.96;65.32;98661.73;108766;1254;95893;-71
2023/03/23 02:18:08;;;;;;;16.50;7.00;;;;;;;8.98;65.30;98660.02;108874;1253;95670;-71
2023/03/23 02:20:50;;;;;;;17.50;7.20;;;;;;;8.98;65.20;98656.81;108618;1252;95602;-70
2023/03/23 02:23:24;;;;;;;16.00;6.70;;;;;;;8.98;65.26;98658.63;108920;1252;111340;-71
2023/03/23 02:26:06;;;;;;;13.90;6.40;;;;;;;8.97;65.27;98653.42;108906;1252;100885;-70
2023/03/23 02:29:06;;;;;;;17.00;6.80;;;;;;;8.95;65.30;98652.50;108733;1252;107603;-70
2023/03/23 02:32:09;;;;;;;17.00;6.80;;;;;;;8.93;65.32;98652.08;108714;1253;95541;-71
2023/03/23 02:34:44;;;;;;;16.20;7.30;;;;;;;8.94;65.26;98651.79;108946;1253;95636;-70
2023/03/23 02:37:26;;;;;;;14.40;6.30;;;;;;;8.94;65.33;98650.38;108746;1252;111144;-70
2023/03/23 02:39:59;;;;;;;17.60;7.50;;;;;;;8.94;65.31;98651.15;108910;1252;100888;-70
2023/03/23 02:42:33;;;;;;;15.20;6.40;;;;;;;8.95;65.37;98652.45;108687;1253;107738;-70
2023/03/23 02:45:03;;;;;;;16.00;7.20;;;;;;;8.97;65.41;98645.21;108746;1254;95718;-70
2023/03/23 02:47:31;;;;;;;17.60;7.30;;;;;;;8.99;65.42;98645.11;108937;1253;95595;-71
2023/03/23 02:49:59;;;;;;;16.60;7.40;;;;;;;9.00;65.34;98642.75;108919;1254;110144;-70
2023/03/23 02:52:31;;;;;;;19.50;8.20;;;;;;;9.01;65.37;98650.08;108904;1253;100589;-71
2023/03/23 02:54:59;;;;;;;15.10;6.70;;;;;;;9.00;65.37;98654.36;108877;1253;107693;-70
2023/03/23 02:57:27;;;;;;;17.00;7.20;;;;;;;8.99;65.34;98654.29;108689;1253;95578;-71
2023/03/23 02:59:54;;;;;;;16.10;6.60;;;;;;;8.98;65.41;98659.44;108661;1253;95701;-70
2023/03/23 03:02:24;;;;;;;18.10;7.40;;;;;;;9.00;65.42;98660.54;108739;1254;95710;-71
2023/03/23 03:05:01;;;;;;;15.80;7.30;;;;;;;9.03;65.42;98664.23;108727;1259;100767;-70
2023/03/23 03:07:52;;;;;;;16.00;7.40;;;;;;;9.05;65.40;98663.41;108585;1253;107614;-70
2023/03/23 03:10:25;;;;;;;17.50;6.80;;;;;;;9.08;65.47;98660.91;108460;1253;95671;-71
2023/03/23 03:12:51;;;;;;;17.50;7.50;;;;;;;9.12;65.49;98663.10;108676;1253;95652;-71
2023/03/23 03:15:23;;;;;;;16.80;7.50;;;;;;;9.16;65.48;98662.95;108901;1254;95609;-70
2023/03/23 03:17:59;;;;;;;16.70;6.60;;;;;;;9.22;65.50;98663.24;108711;1254;100527;-70
2023/03/23 03:20:29;;;;;;;17.40;7.10;;;;;;;9.26;65.51;98659.23;108839;1253;107651;-71
2023/03/23 03:22:57;;;;;;;14.20;6.70;;;;;;;9.29;65.47;98658.69;108651;1259;95745;-71
2023/03/23 03:25:23;;;;;;;15.20;7.00;;;;;;;9.31;65.54;98655.33;108683;1254;95657;-70
2023/03/23 03:27:52;;;;;;;18.20;7.40;;;;;;;9.34;65.49;98657.41;108914;1253;95969;-70
2023/03/23 03:30:23;;;;;;;16.80;7.20;;;;;;;9.37;65.52;98655.04;108896;1253;100656;-71
2023/03/23 03:32:53;;;;;;;19.70;7.30;;;;;;;9.39;65.53;98655.42;108614;1254;107139;-71
2023/03/23 03:35:22;;;;;;;18.10;7.90;;;;;;;9.42;65.49;98657.35;108854;1256;95586;-71
2023/03/23 03:37:48;;;;;;;16.90;7.50;;;;;;;9.42;65.55;98661.09;108943;1254;97097;-70
2023/03/23 03:40:19;;;;;;;14.20;6.50;;;;;;;9.41;65.48;98668.37;108912;1253;95609;-75
2023/03/23 03:42:46;;;;;;;17.40;7.50;;;;;;;9.40;65.46;98676.09;108674;1253;101075;-71
2023/03/23 03:45:16;;;;;;;17.50;7.40;;;;;;;9.39;65.48;98676.86;108801;1252;95642;-70
2023/03/23 03:47:42;;;;;;;16.60;6.80;;;;;;;9.37;65.48;98671.30;108652;1253;95735;-71
2023/03/23 03:50:09;;;;;;;14.80;6.70;;;;;;;9.36;65.44;98675.80;108896;1252;95716;-70
2023/03/23 03:52:35;;;;;;;15.70;7.20;;;;;;;9.36;65.45;98672.47;108891;1253;95592;-70
2023/03/23 03:55:02;;;;;;;17.50;7.40;;;;;;;9.36;65.43;98665.75;108948;1253;95700;-71
2023/03/23 03:57:28;;;;;;;16.30;7.30;;;;;;;9.36;65.42;98662.70;108705;1253;95695;-70
2023/03/23 03:59:54;;;;;;;17.40;7.80;;;;;;;9.37;65.54;98660.02;108915;1253;95618;-71
2023/03/23 04:02:20;;;;;;;14.60;6.30;;;;;;;9.38;65.62;98657.06;108903;1253;95952;-71
2023/03/23 04:04:48;;;;;;;17.20;7.10;;;;;;;9.41;65.55;98654.44;108664;1253;96033;-71
2023/03/23 04:07:26;;;;;;;16.40;6.30;;;;;;;9.43;65.47;98651.29;108616;1254;95668;-71
2023/03/23 04:09:52;;;;;;;17.80;7.90;;;;;;;9.43;65.47;98649.31;108720;1253;95748;-71
2023/03/23 04:12:17;;;;;;;17.00;7.10;;;;;;;9.45;65.54;98649.32;108879;1253;95832;-71
2023/03/23 04:14:43;;;;;;;16.40;7.70;;;;;;;9.47;65.59;98642.82;108969;1253;96112;-71
2023/03/23 04:17:09;;;;;;;16.30;7.50;;;;;;;9.51;65.55;98642.86;108852;1254;95641;-71
2023/03/23 04:19:37;;;;;;;17.40;7.10;;;;;;;9.53;65.48;98641.27;108809;1253;95645;-71
2023/03/23 04:22:04;;;;;;;14.10;6.50;;;;;;;9.56;65.50;98638.44;108546;1254;95984;-71
2023/03/23 04:24:33;;;;;;;15.50;7.00;;;;;;;9.59;65.54;98637.52;108534;1254;95696;-75
2023/03/23 04:26:59;;;;;;;16.90;7.30;;;;;;;9.62;65.43;98635.89;108708;1253;95971;-71
2023/03/23 04:29:26;;;;;;;18.30;7.00;;;;;;;9.63;65.50;98632.92;108498;1252;96006;-73
2023/03/23 04:31:52;;;;;;;16.60;7.20;;;;;;;9.65;65.55;98637.08;108489;1254;96284;-72
2023/03/23 04:34:18;;;;;;;15.90;7.30;;;;;;;9.66;65.52;98639.30;108867;1253;95856;-71
2023/03/23 04:36:46;;;;;;;16.10;7.10;;;;;;;9.67;65.37;98636.73;108867;1256;107195;-71
2023/03/23 04:39:13;;;;;;;18.80;7.80;;;;;;;9.68;65.45;98640.70;108909;1253;96178;-73
2023/03/23 04:41:39;;;;;;;15.30;7.00;;;;;;;9.68;65.34;98638.05;108660;1253;95981;-71
2023/03/23 04:44:06;;;;;;;17.60;7.60;;;;;;;9.70;65.31;98629.79;108884;1256;95828;-71
2023/03/23 04:46:33;;;;;;;17.80;6.90;;;;;;;9.68;65.36;98625.28;108895;1252;95712;-71
2023/03/23 04:48:59;;;;;;;14.60;6.60;;;;;;;9.67;65.33;98618.64;108544;1254;95693;-71
2023/03/23 04:51:27;;;;;;;18.00;7.80;;;;;;;9.66;65.29;98624.71;108783;1257;95668;-71
2023/03/23 04:53:56;;;;;;;16.50;7.20;;;;;;;9.66;65.32;98628.95;108628;1257;110917;-71
2023/03/23 04:56:22;;;;;;;18.60;7.30;;;;;;;9.67;65.24;98632.09;108918;1254;100571;-72
2023/03/23 04:58:48;;;;;;;15.30;6.90;;;;;;;9.69;65.29;98631.95;108824;1254;95614;-71
2023/03/23 05:01:14;;;;;;;15.60;6.90;;;;;;;9.70;65.26;98629.45;108912;1253;95691;-71
2023/03/23 05:03:41;;;;;;;14.90;7.00;;;;;;;9.71;65.29;98631.13;108915;1256;111276;-71
2023/03/23 05:06:07;;;;;;;15.30;6.60;;;;;;;9.72;65.27;98631.38;108897;1253;95592;-71
2023/03/23 05:08:33;;;;;;;17.00;7.40;;;;;;;9.73;65.26;98633.65;108503;1253;95649;-71
2023/03/23 05:11:00;;;;;;;16.00;6.90;;;;;;;9.75;65.25;98634.17;108908;1255;95594;-71
2023/03/23 05:13:29;;;;;;;16.00;6.90;;;;;;;9.78;65.35;98635.88;108792;1253;95969;-71
2023/03/23 05:15:55;;;;;;;16.70;7.20;;;;;;;9.82;65.20;98639.32;108714;1254;100924;-71
2023/03/23 05:18:22;;;;;;;14.80;6.80;;;;;;;9.86;65.32;98640.98;108842;1254;95585;-71
2023/03/23 05:20:48;;;;;;;15.00;7.10;;;;;;;9.89;65.29;98643.36;108973;1254;95591;-71
2023/03/23 05:23:14;;;;;;;15.50;6.70;;;;;;;9.93;65.27;98641.49;108915;1253;111244;-73
2023/03/23 05:25:41;;;;;;;17.80;7.30;;;;;;;9.97;65.29;98646.84;108905;1256;96004;-71
2023/03/23 05:28:10;;;;;;;16.50;7.20;;;;;;;10.02;65.28;98649.44;108886;1254;95547;-71
2023/03/23 05:30:38;;;;;;;15.40;6.60;;;;;;;10.06;65.28;98647.91;108519;1253;95793;-71
2023/03/23 05:33:05;;;;;;;17.90;7.60;;;;;;;10.09;65.26;98650.16;108735;1253;95678;-71
2023/03/23 05:35:31;;;;;;;15.90;7.00;;;;;;;10.10;65.20;98647.41;108679;1253;95728;-71
2023/03/23 05:37:57;;;;;;;15.40;6.80;;;;;;;10.12;65.14;98652.10;108861;1254;95756;-71
2023/03/23 05:40:25;;;;;;;16.10;6.60;;;;;;;10.12;65.15;98647.27;108660;1259;95667;-71
2023/03/23 05:42:51;;;;;;;16.00;6.90;;;;;;;10.12;65.13;98649.37;108551;1253;95673;-71
2023/03/23 05:45:18;;;;;;;16.90;7.30;;;;;;;10.15;65.06;98648.86;108744;1254;96161;-74
2023/03/23 05:47:45;;;;;;;15.50;7.30;;;;;;;10.19;65.13;98650.88;108593;1254;95708;-76
2023/03/23 05:50:12;;;;;;;18.60;7.70;;;;;;;10.21;65.17;98652.27;108789;1253;95633;-74
2023/03/23 05:52:39;;;;;;;13.80;6.60;;;;;;;10.22;65.01;98648.96;108916;1253;95603;-72
2023/03/23 05:55:07;;;;;;;16.10;7.30;;;;;;;10.24;65.05;98652.54;108504;1253;110869;-72
2023/03/23 05:57:34;;;;;;;15.40;7.00;;;;;;;10.26;65.07;98651.50;108763;1253;100928;-73
2023/03/23 06:00:05;;;;;;;15.80;6.70;;;;;;;10.30;65.08;98652.98;108435;1254;95718;-74
2023/03/23 06:02:31;;;;;;;14.80;6.30;;;;;;;10.34;65.01;98652.70;108511;1252;95975;-73
2023/03/23 06:04:58;;;;;;;19.10;7.10;;;;;;;10.38;64.91;98653.29;108786;1253;95757;-73
2023/03/23 06:07:25;;;;;;;14.00;6.50;;;;;;;10.41;64.99;98654.44;108842;1253;95569;-72
2023/03/23 06:09:52;;;;;;;16.20;7.20;;;;;;;10.45;64.95;98648.13;108596;1254;96101;-74
2023/03/23 06:12:22;;;;;;;18.50;7.70;;;;;;;10.49;64.93;98642.16;108773;1253;95856;-74
2023/03/23 06:14:48;;;;;;;20.30;7.90;;;;;;;10.53;64.89;98644.86;108769;1252;95672;-75
2023/03/23 06:17:17;;;;;;;16.00;7.10;;;;;;;10.57;64.80;98646.30;108341;1254;95688;-83
2023/03/23 06:19:45;;;;;;;15.80;7.40;;;;;;;10.64;64.77;98643.63;108738;1254;111022;-74
2023/03/23 06:22:11;;;;;;;12.80;6.30;;;;;;;10.76;64.95;98645.71;108789;1253;100678;-74
2023/03/23 06:24:38;;;;;;;15.70;7.10;;;;;;;10.90;64.81;98647.09;108687;1254;95954;-73
2023/03/23 06:27:04;;;;;;;15.20;6.70;;;;;;;11.03;64.94;98646.36;108786;1253;95884;-73
2023/03/23 06:29:31;;;;;;;18.00;7.60;;;;;;;11.14;64.75;98640.50;108725;1254;95624;-74
2023/03/23 06:32:00;;;;;;;17.50;7.40;;;;;;;11.23;64.95;98641.52;108644;1254;100903;-73
2023/03/23 06:34:27;;;;;;;17.20;7.30;;;;;;;11.34;64.66;98636.17;108790;1254;108451;-73
2023/03/23 06:36:53;;;;;;;16.60;7.20;;;;;;;11.44;64.74;98637.13;108811;1254;95644;-72
2023/03/23 06:39:19;;;;;;;16.70;7.80;;;;;;;11.52;64.72;98639.36;108814;1255;96076;-71
2023/03/23 06:41:45;;;;;;;16.30;7.10;;;;;;;11.60;64.82;98642.39;108880;1254;96492;-73
2023/03/23 06:44:13;;;;;;;14.50;6.80;;;;;;;11.67;64.57;98640.41;108785;1254;95649;-73
2023/03/23 06:46:41;;;;;;;17.90;7.10;;;;;;;11.74;64.71;98646.08;108422;1254;96754;-73
2023/03/23 06:49:08;;;;;;;16.90;7.40;;;;;;;11.79;64.19;98646.73;108627;1255;95713;-72
2023/03/23 06:51:35;;;;;;;16.00;6.50;;;;;;;11.78;64.47;98648.22;108626;1252;96161;-72
2023/03/23 06:54:19;;;;;;;16.50;6.90;;;;;;;11.77;64.18;98648.13;108806;1254;99975;-72
2023/03/23 06:56:45;;;;;;;16.20;6.50;;;;;;;11.81;64.33;98652.97;108814;1253;95849;-73
2023/03/23 06:59:12;;;;;;;15.20;7.00;;;;;;;11.88;64.36;98656.96;108793;1254;95802;-71
2023/03/23 07:01:38;;;;;;;12.90;6.10;;;;;;;11.97;64.47;98662.96;108707;1254;95780;-73
2023/03/23 07:04:05;;;;;;;16.60;7.20;;;;;;;12.07;64.31;98658.60;108631;1254;100955;-71
2023/03/23 07:06:31;;;;;;;19.50;7.50;;;;;;;12.14;64.21;98660.14;108559;1254;95743;-73
2023/03/23 07:08:58;;;;;;;15.50;6.70;;;;;;;12.19;63.95;98657.23;108742;1254;96021;-70
2023/03/23 07:11:24;;;;;;;15.30;6.40;;;;;;;12.19;64.00;98657.72;108552;1254;96767;-70
2023/03/23 07:13:50;;;;;;;14.80;7.00;;;;;;;12.19;63.99;98655.56;108938;1253;95645;-74
2023/03/23 07:16:17;;;;;;;14.10;6.70;;;;;;;12.16;64.04;98654.25;108806;1252;107735;-70
2023/03/23 07:18:43;;;;;;;14.20;6.80;;;;;;;12.14;63.86;98660.36;108796;1254;96583;-70
2023/03/23 07:21:10;;;;;;;17.00;6.80;;;;;;;12.13;63.79;98657.95;108796;1253;95932;-71
2023/03/23 07:23:36;;;;;;;16.20;6.80;;;;;;;12.15;63.69;98658.94;108778;1254;95836;-74
2023/03/23 07:26:03;;;;;;;16.20;6.70;;;;;;;12.19;63.73;98653.15;108714;1254;107736;-71
2023/03/23 07:28:29;;;;;;;14.90;6.70;;;;;;;12.22;63.70;98655.73;108569;1257;96096;-72
2023/03/23 07:30:55;;;;;;;14.20;6.80;;;;;;;12.24;63.73;98647.35;108778;1254;96374;-72
2023/03/23 07:33:22;;;;;;;16.10;7.20;;;;;;;12.29;63.51;98647.83;108768;1254;95717;-71
2023/03/23 07:35:48;;;;;;;16.30;6.80;;;;;;;12.35;63.64;98646.27;108795;1254;96053;-70
2023/03/23 07:38:14;;;;;;;16.50;6.80;;;;;;;12.46;63.58;98645.45;108807;1254;95619;-70
2023/03/23 07:40:41;;;;;;;14.70;6.40;;;;;;;12.65;63.57;98648.30;108837;1253;96433;-70
2023/03/23 07:43:07;;;;;;;16.20;6.40;;;;;;;12.84;63.55;98650.39;108603;1254;96181;-72
2023/03/23 07:45:33;;;;;;;16.40;7.00;;;;;;;13.05;63.69;98651.36;108855;1254;95675;-74
2023/03/23 07:48:00;;;;;;;15.50;6.90;;;;;;;13.28;63.71;98647.48;108765;1254;96751;-72
2023/03/23 07:50:26;;;;;;;16.70;7.10;;;;;;;13.48;63.27;98646.09;108839;1253;96651;-72
2023/03/23 07:52:57;;;;;;;12.60;5.70;;;;;;;13.63;63.42;98642.23;108821;1253;95748;-73
2023/03/23 07:55:25;;;;;;;15.80;6.60;;;;;;;13.80;63.16;98644.22;108822;1253;100571;-73
2023/03/23 07:57:53;;;;;;;13.90;6.40;;;;;;;13.93;63.06;98641.97;108788;1254;107555;-73
2023/03/23 08:00:23;;;;;;;13.70;6.80;;;;;;;14.03;62.84;98641.42;108469;1253;95892;-73
2023/03/23 08:02:52;;;;;;;16.30;6.80;;;;;;;14.09;62.74;98639.98;108406;1253;95729;-73
2023/03/23 08:05:20;;;;;;;14.90;6.50;;;;;;;14.16;62.82;98642.88;108812;1254;112170;-75
2023/03/23 08:07:47;;;;;;;15.50;6.80;;;;;;;14.26;62.32;98643.88;108347;1254;100980;-71
2023/03/23 08:10:15;;;;;;;14.30;6.40;;;;;;;14.36;62.71;98645.96;108810;1253;96029;-71
2023/03/23 08:12:43;;;;;;;14.30;6.50;;;;;;;14.48;62.24;98643.63;108446;1257;95946;-71
2023/03/23 08:15:12;;;;;;;16.20;7.00;;;;;;;14.52;61.69;98650.14;108609;1254;95665;-72
2023/03/23 08:17:40;;;;;;;16.40;7.60;;;;;;;14.58;61.63;98644.91;108459;1254;111992;-71
2023/03/23 08:20:10;;;;;;;16.80;7.30;;;;;;;14.63;61.58;98640.42;108805;1254;100927;-71
2023/03/23 08:22:38;;;;;;;16.00;6.90;;;;;;;14.67;61.43;98641.80;108806;1254;107454;-71
2023/03/23 08:25:07;;;;;;;16.40;7.10;;;;;;;14.76;61.85;98634.21;108658;1253;95968;-71
2023/03/23 08:27:33;;;;;;;16.60;7.10;;;;;;;14.87;61.48;98637.02;108822;1254;95672;-72
2023/03/23 08:29:59;;;;;;;21.20;7.70;;;;;;;14.98;61.68;98639.72;108845;1253;96013;-72
2023/03/23 08:32:26;;;;;;;16.80;7.10;;;;;;;15.10;61.64;98639.64;108844;1253;95983;-72
2023/03/23 08:34:53;;;;;;;17.00;7.30;;;;;;;15.17;61.41;98643.56;108690;1256;95649;-71
2023/03/23 08:37:19;;;;;;;15.50;6.90;;;;;;;15.20;61.31;98647.22;108843;1254;95850;-73
2023/03/23 08:39:45;;;;;;;15.00;6.70;;;;;;;15.23;60.92;98642.15;108792;1254;95625;-72
2023/03/23 08:42:11;;;;;;;15.80;6.90;;;;;;;15.25;60.78;98642.64;108854;1253;95624;-72
2023/03/23 08:44:37;;;;;;;17.30;6.80;;;;;;;15.30;61.07;98638.23;108839;1252;95991;-71
2023/03/23 08:47:05;;;;;;;15.10;6.00;;;;;;;15.36;60.93;98637.24;108644;1254;95890;-72
2023/03/23 08:49:34;;;;;;;11.80;5.90;;;;;;;15.41;60.14;98638.06;108834;1252;111139;-70
2023/03/23 08:52:02;;;;;;;13.80;6.00;;;;;;;15.47;60.95;98644.06;108858;1253;100514;-70
2023/03/23 08:54:30;;;;;;;13.80;6.30;;;;;;;15.54;60.55;98646.79;108797;1254;96623;-70
2023/03/23 08:57:00;;;;;;;14.20;5.70;;;;;;;15.56;60.04;98650.46;108737;1253;95911;-70
2023/03/23 08:59:26;;;;;;;11.70;5.30;;;;;;;15.57;60.24;98655.50;108680;1254;171334;-73
2023/03/23 09:01:53;;;;;;;13.90;6.00;;;;;;;15.57;60.08;98654.48;108751;1254;95633;-71
2023/03/23 09:04:19;;;;;;;15.20;6.00;;;;;;;15.60;60.39;98649.02;108784;1254;95733;-71
2023/03/23 09:06:45;;;;;;;15.50;5.90;;;;;;;15.61;59.13;98651.36;108802;1254;96697;-75
2023/03/23 09:09:13;;;;;;;14.90;6.70;;;;;;;15.64;59.57;98647.55;108673;1253;96043;-72
2023/03/23 09:11:39;;;;;;;18.90;6.80;;;;;;;15.67;59.36;98654.45;108813;1253;96070;-72
2023/03/23 09:14:07;;;;;;;15.10;6.00;;;;;;;15.69;59.37;98651.48;108646;1254;96300;-71
2023/03/23 09:16:33;;;;;;;12.80;5.60;;;;;;;15.73;59.53;98651.61;108570;1253;96590;-73
2023/03/23 09:19:00;;;;;;;12.50;5.30;;;;;;;15.84;59.80;98651.49;108392;1254;95857;-74
2023/03/23 09:21:27;;;;;;;13.80;6.10;;;;;;;15.94;59.65;98656.56;108639;1254;95960;-74
2023/03/23 09:23:58;;;;;;;14.30;6.00;;;;;;;16.04;59.69;98647.96;108808;1253;95635;-71
2023/03/23 09:26:26;;;;;;;13.60;5.50;;;;;;;16.13;59.43;98646.73;108789;1253;100800;-73
2023/03/23 09:28:53;;;;;;;11.40;5.60;;;;;;;16.15;59.18;98648.46;108619;1254;107698;-72
2023/03/23 09:31:23;;;;;;;14.00;5.80;;;;;;;16.17;58.90;98642.42;108605;1254;96187;-77
2023/03/23 09:33:52;;;;;;;14.20;6.20;;;;;;;16.23;59.12;98639.48;108663;1254;95800;-73
2023/03/23 09:36:21;;;;;;;10.20;5.00;;;;;;;16.33;59.31;98640.05;108621;1253;111764;-72
2023/03/23 09:38:50;;;;;;;9.90;4.90;;;;;;;16.39;59.09;98636.18;108669;1253;100841;-72
2023/03/23 09:42:02;;;;;;;10.30;5.10;;;;;;;16.47;59.17;98634.70;108453;1253;107471;-73
2023/03/23 09:44:40;;;;;;;13.40;6.00;;;;;;;16.55;59.05;98631.50;108843;1253;95523;-74
2023/03/23 09:47:35;;;;;;;11.60;5.50;;;;;;;16.58;59.10;98627.12;108775;1253;95595;-81
2023/03/23 09:50:18;;;;;;;11.60;5.70;;;;;;;16.55;58.70;98634.74;108690;1254;110227;-73
2023/03/23 09:52:58;;;;;;;15.00;6.00;;;;;;;16.52;58.75;98634.48;108807;1253;101117;-75
2023/03/23 09:55:25;;;;;;;12.70;6.10;;;;;;;16.46;57.70;98628.38;108577;1254;107647;-73
2023/03/23 09:58:00;;;;;;;13.10;5.40;;;;;;;16.42;57.87;98629.70;108716;1254;95651;-74
2023/03/23 10:00:36;;;;;;;12.00;5.40;;;;;;;16.43;58.29;98630.27;108789;1253;95647;-72
2023/03/23 10:03:15;;;;;;;14.50;5.70;;;;;;;16.47;58.47;98627.89;108740;1254;110798;-72
2023/03/23 10:05:45;;;;;;;13.70;6.30;;;;;;;16.46;58.02;98630.80;108870;1253;100671;-71
2023/03/23 10:08:24;;;;;;;12.10;5.70;;;;;;;16.46;57.84;98630.48;108583;1253;107392;-73
2023/03/23 10:11:00;;;;;;;11.40;5.70;;;;;;;16.50;57.65;98636.34;108840;1254;95586;-71
2023/03/23 10:13:32;;;;;;;14.80;6.20;;;;;;;16.48;57.86;98631.91;108736;1254;95705;-71
2023/03/23 10:16:00;;;;;;;11.50;5.80;;;;;;;16.44;57.91;98631.38;108791;1253;111130;-71
2023/03/23 10:18:38;;;;;;;14.10;5.80;;;;;;;16.42;57.65;98630.23;108835;1253;100921;-73
2023/03/23 10:21:08;;;;;;;14.90;5.60;;;;;;;16.44;58.00;98634.45;108820;1252;107617;-72
2023/03/23 10:23:37;;;;;;;13.90;5.60;;;;;;;16.53;57.97;98634.97;108727;1252;95674;-74
2023/03/23 10:26:35;;;;;;;8.80;4.30;;;;;;;16.57;57.73;98630.39;108843;1253;95648;-75
2023/03/23 10:29:06;;;;;;;13.20;5.80;;;;;;;16.63;57.62;98627.80;108816;1253;111269;-73
2023/03/23 10:31:41;;;;;;;13.00;6.00;;;;;;;16.70;57.62;98631.27;108766;1253;101008;-75
2023/03/23 10:34:38;;;;;;;15.60;5.90;;;;;;;16.75;57.81;98630.99;108799;1253;107617;-74
2023/03/23 10:37:24;;;;;;;14.20;6.10;;;;;;;16.80;57.55;98626.93;108843;1253;95932;-75
2023/03/23 10:39:57;;;;;;;12.20;5.00;;;;;;;16.84;57.56;98628.55;108611;1253;95702;-74
2023/03/23 10:42:33;;;;;;;12.30;5.10;;;;;;;16.85;57.32;98622.34;108881;1254;111290;-76
2023/03/23 10:45:13;;;;;;;14.40;5.90;;;;;;;16.92;57.37;98622.56;108822;1254;101393;-82
2023/03/23 10:47:44;;;;;;;12.00;5.10;;;;;;;17.00;57.16;98621.82;108811;1253;108024;-74
2023/03/23 10:50:15;;;;;;;13.10;6.30;;;;;;;16.98;56.38;98622.58;108655;1253;95670;-74
2023/03/23 10:52:44;;;;;;;16.10;6.30;;;;;;;16.96;56.78;98617.77;108659;1253;95854;-75
2023/03/23 10:55:12;;;;;;;12.90;5.80;;;;;;;16.92;55.87;98618.36;108438;1252;110809;-73
2023/03/23 10:57:41;;;;;;;15.80;6.50;;;;;;;16.86;56.36;98618.59;108793;1253;102288;-75
2023/03/23 11:00:19;;;;;;;12.80;5.90;;;;;;;16.85;56.65;98618.96;108773;1253;107672;-74
2023/03/23 11:03:03;;;;;;;15.80;6.30;;;;;;;16.80;56.61;98616.38;108434;1253;95703;-72
2023/03/23 11:05:42;;;;;;;;;;;;;;;16.70;56.39;98612.60;108678;1253;96013;-72
2023/03/23 11:08:14;;;;;;;9.80;5.60;;;;;;;16.59;56.61;98611.55;108764;1253;111321;-71
2023/03/23 11:10:47;;;;;;;13.60;5.50;;;;;;;16.49;56.03;98607.61;108818;1252;101069;-73
2023/03/23 11:13:15;;;;;;;14.40;6.20;;;;;;;16.40;56.27;98612.90;108777;1252;107141;-73
2023/03/23 11:15:47;;;;;;;13.20;6.50;;;;;;;16.34;56.17;98614.04;108658;1254;95825;-77
2023/03/23 11:18:39;;;;;;;17.50;6.90;;;;;;;16.28;56.20;98612.28;108654;1254;95756;-69
2023/03/23 11:21:39;;;;;;;14.00;6.20;;;;;;;16.20;56.01;98605.20;108636;1253;111285;-78
2023/03/23 11:27:39;;;;;;;14.50;6.70;;;;;;;15.97;56.00;98602.44;108303;1256;107398;-86
2023/03/23 11:30:55;;;;;;;14.30;6.40;;;;;;;15.86;55.94;98599.20;108213;1256;95707;-84
2023/03/23 11:33:38;;;;;;;14.90;6.30;;;;;;;15.76;55.95;98594.52;108223;1256;95730;-82
2023/03/23 11:36:15;;;;;;;17.10;6.80;;;;;;;15.70;55.88;98593.53;108149;1256;111843;-78